Time;durP1;ratioP1;P1;durP2;ratioP2;P2;SDS_P1;SDS_P2;PMS_P1;PMS_P2;Temp;Humidity;BMP_temperature;BMP_pressure;BME280_temperature;BME280_humidity;BME280_pressure;Samples;Min_cycle;Max_cycle;Signal;HPM_P1;HPM_P2
2021/12/31 06:39:49;;;;;;;7.90;2.30;;;;;;;10.21;100.00;101120.28;5116648;27;20384;-75
2021/12/31 06:42:15;;;;;;;6.75;1.98;;;;;;;10.03;100.00;101109.41;5075751;28;20035;-77
2021/12/31 06:44:41;;;;;;;11.85;3.90;;;;;;;9.96;100.00;101102.94;5092663;28;20024;-74
2021/12/31 06:47:07;;;;;;;10.38;2.50;;;;;;;10.07;100.00;101110.84;5093040;28;20115;-74
2021/12/31 06:49:33;;;;;;;5.40;1.80;;;;;;;10.22;100.00;101148.38;5077576;28;20036;-77
2021/12/31 06:52:09;;;;;;;14.73;3.85;;;;;;;9.88;100.00;101103.56;5081433;28;20112;-79
2021/12/31 06:54:36;;;;;;;10.75;2.50;;;;;;;9.83;100.00;101089.88;5113846;28;20023;-78
2021/12/31 06:57:04;;;;;;;7.18;1.90;;;;;;;9.89;100.00;101113.13;5110909;28;20039;-78
2021/12/31 06:59:33;;;;;;;6.93;2.08;;;;;;;10.08;100.00;101124.84;5095279;28;20107;-77
2021/12/31 07:02:03;;;;;;;8.55;2.50;;;;;;;10.04;100.00;101140.13;5128451;27;20081;-79
2021/12/31 07:04:28;;;;;;;8.93;2.22;;;;;;;9.89;100.00;101102.59;5132196;27;20446;-76
2021/12/31 07:06:54;;;;;;;11.15;2.63;;;;;;;10.13;100.00;101143.78;5095801;28;20023;-79
2021/12/31 07:09:20;;;;;;;18.20;7.35;;;;;;;10.05;100.00;101149.69;5096064;28;20024;-77
2021/12/31 07:11:45;;;;;;;9.27;2.42;;;;;;;9.77;100.00;101122.84;5110323;28;20024;-77
2021/12/31 07:14:14;;;;;;;10.65;2.20;;;;;;;9.87;100.00;101169.63;5110245;28;20031;-77
2021/12/31 07:16:42;;;;;;;6.15;1.75;;;;;;;9.86;100.00;101176.69;5109434;28;20034;-77
2021/12/31 07:19:08;;;;;;;7.93;2.20;;;;;;;9.61;100.00;101136.41;5092550;28;20077;-77
2021/12/31 07:21:34;;;;;;;10.88;2.60;;;;;;;9.40;100.00;101109.91;5114120;28;20102;-79
2021/12/31 07:26:52;;;;;;;6.13;2.03;;;;;;;9.69;100.00;101153.41;5094981;28;20326;-79
2021/12/31 07:29:18;;;;;;;8.50;2.55;;;;;;;9.62;100.00;101159.16;5115587;28;20019;-78
2021/12/31 07:31:51;;;;;;;6.97;2.33;;;;;;;9.50;100.00;101132.91;5099647;28;20039;-80
2021/12/31 07:34:16;;;;;;;9.90;2.30;;;;;;;9.74;100.00;101162.66;5140813;22;20117;-77
2021/12/31 07:36:43;;;;;;;10.15;2.53;;;;;;;9.72;100.00;101159.31;5086480;28;20083;-80
2021/12/31 07:39:12;;;;;;;13.82;3.00;;;;;;;9.67;100.00;101160.59;5074299;28;20025;-74
2021/12/31 07:41:37;;;;;;;19.23;7.22;;;;;;;9.91;100.00;101200.06;5087883;28;20506;-81
2021/12/31 07:44:04;;;;;;;11.63;2.78;;;;;;;9.91;100.00;101208.00;5058904;28;20068;-76
2021/12/31 07:46:29;;;;;;;5.97;2.15;;;;;;;9.91;100.00;101178.97;5039891;28;20029;-76
2021/12/31 07:48:58;;;;;;;9.10;2.60;;;;;;;9.56;100.00;101114.84;5058053;28;20094;-77
2021/12/31 07:51:24;;;;;;;7.18;2.30;;;;;;;9.61;100.00;101140.84;5041025;28;20021;-78
2021/12/31 07:53:49;;;;;;;6.68;2.33;;;;;;;9.72;100.00;101158.44;5063688;28;20074;-77
2021/12/31 07:56:18;;;;;;;7.47;2.60;;;;;;;9.77;100.00;101172.13;5071316;28;20044;-82
2021/12/31 07:58:47;;;;;;;11.35;3.60;;;;;;;9.75;100.00;101166.97;5068049;28;20021;-77
2021/12/31 08:01:13;;;;;;;7.72;2.42;;;;;;;9.76;100.00;101184.47;5043311;28;20025;-76
2021/12/31 08:03:38;;;;;;;9.10;2.63;;;;;;;9.68;100.00;101157.84;5058741;28;20028;-77
2021/12/31 08:06:04;;;;;;;8.63;2.50;;;;;;;9.60;100.00;101150.53;5040043;28;20025;-75
2021/12/31 08:08:30;;;;;;;7.95;2.55;;;;;;;9.73;100.00;101178.59;5059195;28;20021;-79
2021/12/31 08:10:56;;;;;;;6.88;2.50;;;;;;;9.81;100.00;101198.16;5045783;28;20091;-84
2021/12/31 08:13:24;;;;;;;15.55;5.53;;;;;;;9.74;100.00;101183.75;5049923;28;20107;-78
2021/12/31 08:15:50;;;;;;;9.35;2.47;;;;;;;9.52;100.00;101168.75;5030169;28;20053;-78
2021/12/31 08:18:15;;;;;;;7.32;2.17;;;;;;;9.75;100.00;101213.59;5043639;28;20052;-77
2021/12/31 08:20:42;;;;;;;8.90;2.90;;;;;;;9.60;100.00;101168.97;5041646;28;20029;-77
2021/12/31 08:23:09;;;;;;;9.13;2.58;;;;;;;9.64;100.00;101185.41;5041635;28;20017;-77
2021/12/31 08:25:38;;;;;;;8.48;2.70;;;;;;;9.59;100.00;101179.66;5040545;28;20032;-77
2021/12/31 08:28:05;;;;;;;8.65;2.50;;;;;;;9.67;100.00;101201.00;5040929;28;20025;-78
2021/12/31 08:30:31;;;;;;;8.48;2.60;;;;;;;9.78;100.00;101219.47;5041096;28;20059;-78
2021/12/31 08:32:57;;;;;;;9.15;2.53;;;;;;;9.56;100.00;101183.38;5042076;28;20052;-81
2021/12/31 08:35:24;;;;;;;6.47;2.30;;;;;;;9.60;100.00;101174.25;5046598;28;20053;-83
2021/12/31 08:40:23;;;;;;;16.77;5.40;;;;;;;9.57;100.00;101155.22;5081191;28;20392;-82
2021/12/31 08:42:49;;;;;;;8.85;3.03;;;;;;;9.59;100.00;101148.03;5050153;28;20044;-75
2021/12/31 08:45:14;;;;;;;7.22;2.58;;;;;;;9.65;100.00;101180.97;5080914;28;20032;-76
2021/12/31 08:47:40;;;;;;;7.93;2.75;;;;;;;9.73;100.00;101194.41;5042415;28;20111;-76
2021/12/31 08:50:26;;;;;;;7.57;2.58;;;;;;;9.69;100.00;101214.06;5043045;28;20135;-82
2021/12/31 08:53:07;;;;;;;8.57;2.33;;;;;;;9.58;100.00;101205.19;5106692;23;20052;-78
2021/12/31 08:55:35;;;;;;;8.38;2.80;;;;;;;9.35;100.00;101162.09;5045836;28;20499;-79
2021/12/31 08:58:01;;;;;;;8.60;2.42;;;;;;;9.77;100.00;101233.63;5077091;28;20020;-77
2021/12/31 09:00:27;;;;;;;9.60;3.05;;;;;;;9.47;100.00;101196.41;5061902;28;20031;-79
2021/12/31 09:02:55;;;;;;;9.75;4.20;;;;;;;9.50;100.00;101183.00;5062885;28;20056;-77
2021/12/31 09:05:24;;;;;;;14.23;3.92;;;;;;;9.92;100.00;101225.47;5063402;28;20033;-81
2021/12/31 09:07:52;;;;;;;8.40;2.70;;;;;;;9.66;100.00;101186.13;5062017;28;20471;-76
2021/12/31 09:10:37;;;;;;;12.30;2.90;;;;;;;9.80;100.00;101208.81;5080458;28;20382;-74
2021/12/31 09:13:03;;;;;;;8.40;2.72;;;;;;;9.64;100.00;101208.31;5083023;28;20103;-75
2021/12/31 09:15:29;;;;;;;9.05;3.28;;;;;;;9.57;100.00;101194.75;5066053;28;20048;-80
2021/12/31 09:17:55;;;;;;;9.82;3.03;;;;;;;9.45;100.00;101162.28;5051593;28;20036;-81
2021/12/31 09:20:21;;;;;;;7.97;2.90;;;;;;;9.85;100.00;101235.66;5082492;28;20421;-74
2021/12/31 09:22:50;;;;;;;7.85;2.38;;;;;;;9.65;100.00;101202.06;5067061;28;20078;-78
2021/12/31 09:25:16;;;;;;;7.50;2.50;;;;;;;9.57;100.00;101207.94;5068564;28;20029;-81
2021/12/31 09:27:45;;;;;;;10.45;2.67;;;;;;;9.57;100.00;101210.56;5065643;28;20466;-75
2021/12/31 09:30:12;;;;;;;7.90;2.65;;;;;;;9.41;100.00;101189.81;5049140;28;20111;-79
2021/12/31 09:32:38;;;;;;;9.55;2.55;;;;;;;9.56;100.00;101203.59;5050067;28;20074;-77
2021/12/31 09:35:10;;;;;;;7.55;2.90;;;;;;;9.67;100.00;101224.72;5080837;28;20024;-74
2021/12/31 09:37:39;;;;;;;7.00;2.40;;;;;;;9.40;100.00;101204.78;5077528;28;20107;-80
2021/12/31 09:40:20;;;;;;;12.48;4.10;;;;;;;9.70;100.00;101253.53;5064885;28;20025;-81
2021/12/31 09:43:09;;;;;;;11.20;4.70;;;;;;;9.50;100.00;101201.47;5064737;28;20028;-76
2021/12/31 09:45:39;;;;;;;8.07;2.78;;;;;;;9.68;100.00;101218.50;5062934;28;20544;-76
2021/12/31 09:48:14;;;;;;;8.40;2.65;;;;;;;9.70;100.00;101229.78;5066315;28;20024;-76
2021/12/31 09:50:43;;;;;;;8.57;2.92;;;;;;;9.47;100.00;101189.34;5091175;28;20063;-76
2021/12/31 09:53:13;;;;;;;10.07;2.58;;;;;;;9.64;100.00;101237.31;5058442;28;20100;-77
2021/12/31 09:55:51;;;;;;;12.18;3.38;;;;;;;9.82;100.00;101265.75;5051274;28;20029;-79
2021/12/31 09:58:18;;;;;;;10.00;2.70;;;;;;;9.88;100.00;101279.44;5041200;28;20087;-77
2021/12/31 10:00:47;;;;;;;8.07;2.85;;;;;;;9.50;100.00;101247.09;5037520;28;20361;-77
2021/12/31 10:03:17;;;;;;;17.92;6.50;;;;;;;9.74;100.00;101277.84;5022095;28;20067;-81
2021/12/31 10:05:45;;;;;;;10.38;3.25;;;;;;;9.79;100.00;101265.16;5021757;28;20116;-78
2021/12/31 10:08:24;;;;;;;35.15;16.65;;;;;;;9.91;100.00;101260.75;5056042;28;20100;-80
2021/12/31 10:11:09;;;;;;;11.15;3.67;;;;;;;9.93;100.00;101256.19;5041251;28;20120;-82
2021/12/31 10:13:40;;;;;;;12.80;4.50;;;;;;;9.76;100.00;101212.63;5057107;28;20039;-78
2021/12/31 10:16:19;;;;;;;17.33;7.28;;;;;;;9.57;100.00;101174.50;5038356;28;20454;-77
2021/12/31 10:18:49;;;;;;;9.18;2.50;;;;;;;9.96;100.00;101253.31;5054446;28;20480;-75
2021/12/31 10:21:19;;;;;;;9.27;3.08;;;;;;;9.85;100.00;101226.91;5041667;28;20391;-76
2021/12/31 10:23:47;;;;;;;9.70;2.60;;;;;;;9.81;100.00;101221.03;5039447;28;20028;-77
2021/12/31 10:26:21;;;;;;;10.48;3.20;;;;;;;9.67;100.00;101177.25;5041254;28;20036;-80
2021/12/31 10:28:58;;;;;;;9.77;3.22;;;;;;;10.10;100.00;101233.78;5040560;28;20532;-76
2021/12/31 10:31:30;;;;;;;8.65;3.00;;;;;;;10.07;100.00;101224.28;5053887;28;20048;-76
2021/12/31 10:33:55;;;;;;;9.50;2.83;;;;;;;9.99;100.00;101203.81;5036703;28;20621;-77
2021/12/31 10:36:33;;;;;;;9.13;2.60;;;;;;;10.21;100.00;101205.56;5035480;28;20060;-75
2021/12/31 10:39:03;;;;;;;8.43;2.75;;;;;;;9.96;100.00;101159.16;5019360;28;20052;-77
2021/12/31 10:41:32;;;;;;;8.52;2.83;;;;;;;9.86;100.00;101128.38;5039263;28;20032;-75
2021/12/31 10:43:59;;;;;;;9.95;2.92;;;;;;;10.22;100.00;101183.50;5040429;28;20081;-75
2021/12/31 10:46:25;;;;;;;9.77;2.50;;;;;;;10.18;100.00;101166.25;5040305;28;20033;-75
2021/12/31 10:48:57;;;;;;;9.25;2.60;;;;;;;9.88;100.00;101156.31;5036504;28;20052;-78
2021/12/31 10:51:47;;;;;;;7.65;2.50;;;;;;;10.03;100.00;101209.66;5031004;28;20032;-81
2021/12/31 10:54:37;;;;;;;26.23;11.85;;;;;;;9.69;100.00;101185.06;5030137;28;20132;-80
2021/12/31 10:57:04;;;;;;;14.63;4.15;;;;;;;9.94;100.00;101215.66;5028327;28;20113;-77
2021/12/31 10:59:36;;;;;;;8.90;2.97;;;;;;;9.67;100.00;101187.81;5058419;28;20040;-79
2021/12/31 11:02:04;;;;;;;9.88;2.80;;;;;;;9.78;100.00;101200.19;5042615;28;20040;-78
2021/12/31 11:04:31;;;;;;;7.93;3.10;;;;;;;10.15;100.00;101250.94;5037901;28;20032;-77
2021/12/31 11:06:58;;;;;;;10.63;3.35;;;;;;;10.13;100.00;101222.97;5062172;28;20044;-77
2021/12/31 11:09:29;;;;;;;19.20;7.53;;;;;;;10.14;100.00;101219.38;5034787;28;20025;-83
2021/12/31 11:12:15;;;;;;;10.25;3.20;;;;;;;9.87;100.00;101156.41;5048328;28;20025;-78
2021/12/31 11:14:41;;;;;;;8.50;2.60;;;;;;;10.07;100.00;101202.34;5026958;28;20040;-76
2021/12/31 11:17:09;;;;;;;8.95;3.03;;;;;;;10.19;100.00;101211.94;5059190;28;20029;-76
2021/12/31 11:19:39;;;;;;;8.13;2.55;;;;;;;10.21;100.00;101197.66;5027487;28;20025;-76
2021/12/31 11:22:06;;;;;;;9.20;2.40;;;;;;;10.12;100.00;101172.00;5062662;28;20051;-75
2021/12/31 11:24:38;;;;;;;10.88;2.45;;;;;;;10.24;100.00;101184.22;5050877;28;20021;-78
2021/12/31 11:27:26;;;;;;;8.35;2.10;;;;;;;10.41;100.00;101214.59;5028368;28;20033;-76
2021/12/31 11:29:53;;;;;;;11.40;2.50;;;;;;;10.34;100.00;101176.44;5052473;28;20486;-80
2021/12/31 11:32:44;;;;;;;11.85;2.63;;;;;;;10.54;100.00;101222.38;5058708;28;20025;-79
2021/12/31 11:35:29;;;;;;;;;;;;;;;10.54;100.00;101208.34;4974585;28;20043;-79
2021/12/31 11:37:58;;;;;;;;;;;;;;;10.63;100.00;101210.25;4972891;28;19910;-78
2021/12/31 11:40:38;;;;;;;;;;;;;;;10.68;100.00;101218.63;4993093;28;19961;-85
2021/12/31 11:43:16;;;;;;;;;;;;;;;10.60;100.00;101207.81;4994827;28;19913;-80
2021/12/31 11:45:42;;;;;;;;;;;;;;;10.68;100.00;101215.97;4972408;28;19953;-80
2021/12/31 11:48:26;;;;;;;;;;;;;;;10.68;100.00;101210.69;4974097;28;19997;-83
2021/12/31 11:51:21;;;;;;;;;;;;;;;10.71;100.00;101212.25;4995914;28;19948;-83
2021/12/31 11:54:09;;;;;;;;;;;;;;;10.95;100.00;101217.34;4980017;28;19944;-82
2021/12/31 11:56:36;;;;;;;;;;;;;;;11.14;100.00;101221.94;5017719;28;19977;-78
2021/12/31 11:59:19;;;;;;;;;;;;;;;11.14;100.00;101206.94;5006721;28;19940;-81
2021/12/31 12:01:50;;;;;;;;;;;;;;;11.16;100.00;101212.09;5022624;28;20557;-80
2021/12/31 12:04:25;;;;;;;;;;;;;;;11.07;100.00;101211.88;4988734;28;19924;-81
2021/12/31 12:06:53;;;;;;;;;;;;;;;11.13;100.00;101220.25;4984437;28;19984;-80
2021/12/31 12:09:37;;;;;;;;;;;;;;;11.07;100.00;101203.94;4986536;28;20096;-85
2021/12/31 12:12:29;;;;;;;;;;;;;;;11.12;100.00;101208.84;5053528;23;19979;-79
2021/12/31 12:15:41;;;;;;;;;;;;;;;11.13;100.00;101204.41;5041220;28;20019;-85
2021/12/31 12:18:52;;;;;;;;;;;;;;;11.11;100.00;101215.13;4970889;28;20025;-85
2021/12/31 12:21:53;;;;;;;;;;;;;;;11.04;100.00;101220.06;4999235;28;19918;-86
2021/12/31 12:24:50;;;;;;;;;;;;;;;11.41;100.00;101219.66;5035316;23;19925;-89
2021/12/31 12:29:49;;;;;;;;;;;;;;;12.23;100.00;101208.25;5191331;23;19921;-79
2021/12/31 12:32:29;;;;;;;;;;;;;;;11.98;100.00;101206.91;5092307;28;19924;-78
2021/12/31 12:34:55;;;;;;;;;;;;;;;11.71;100.00;101207.44;5057106;28;19913;-79
2021/12/31 12:37:27;;;;;;;;;;;;;;;11.35;100.00;101224.59;5054449;28;20272;-79
2021/12/31 12:39:57;;;;;;;;;;;;;;;11.23;100.00;101234.41;5055643;28;19908;-79
2021/12/31 12:42:23;;;;;;;;;;;;;;;11.10;100.00;101246.94;5060517;28;20346;-78
2021/12/31 12:45:05;;;;;;;;;;;;;;;11.07;100.00;101250.69;5037680;28;19909;-78
2021/12/31 12:47:31;;;;;;;;;;;;;;;11.08;100.00;101258.50;5068641;28;20374;-78
2021/12/31 12:50:01;;;;;;;;;;;;;;;10.88;100.00;101264.56;5056826;28;19962;-76
2021/12/31 12:52:27;;;;;;;;;;;;;;;10.91;100.00;101268.75;5088100;28;19919;-78
2021/12/31 12:55:11;;;;;;;;;;;;;;;10.77;100.00;101278.63;5067682;28;19924;-78
2021/12/31 12:57:37;;;;;;;;;;;;;;;10.71;100.00;101275.66;5033795;28;20031;-78
2021/12/31 13:00:06;;;;;;;;;;;;;;;10.67;100.00;101280.31;5069817;28;19917;-78
2021/12/31 13:02:42;;;;;;;;;;;;;;;10.62;100.00;101296.53;5058710;28;19917;-78
2021/12/31 13:07:58;;;;;;;;;;;;;;;10.52;100.00;101290.31;5053705;28;19916;-79
2021/12/31 13:10:28;;;;;;;;;;;;;;;10.42;100.00;101289.34;5070141;28;19916;-78
2021/12/31 13:12:54;;;;;;;;;;;;;;;10.44;100.00;101287.44;5053149;28;19921;-77
2021/12/31 13:15:21;;;;;;;14.90;2.97;;;;;;;10.16;100.00;101271.06;5093568;28;20016;-78
2021/12/31 13:18:10;;;;;;;16.55;3.45;;;;;;;10.31;100.00;101299.91;5060332;28;20069;-83
2021/12/31 13:20:37;;;;;;;17.75;3.33;;;;;;;10.21;100.00;101297.94;5040942;28;20025;-79
2021/12/31 13:23:08;;;;;;;23.10;5.57;;;;;;;10.32;100.00;101309.53;5053355;28;20021;-78
2021/12/31 13:25:45;;;;;;;13.02;3.53;;;;;;;10.28;100.00;101324.72;5052740;28;20434;-79
2021/12/31 13:28:29;;;;;;;16.90;3.88;;;;;;;9.99;100.00;101290.00;5052446;28;20041;-78
2021/12/31 13:31:38;;;;;;;17.38;3.65;;;;;;;10.19;100.00;101328.91;5072792;28;20104;-78
2021/12/31 13:34:24;;;;;;;19.73;3.88;;;;;;;10.12;100.00;101322.41;5041022;28;20080;-77
2021/12/31 13:36:55;;;;;;;20.95;5.18;;;;;;;9.95;100.00;101299.13;5040769;28;20041;-77
2021/12/31 13:39:35;;;;;;;18.30;4.50;;;;;;;10.14;100.00;101311.75;5072651;28;20120;-78
2021/12/31 13:42:07;;;;;;;15.60;3.70;;;;;;;10.11;100.00;101296.16;5037494;28;20052;-74
2021/12/31 13:44:38;;;;;;;15.77;3.63;;;;;;;10.03;100.00;101265.06;5037646;28;20375;-75
2021/12/31 13:47:16;;;;;;;15.50;3.33;;;;;;;9.80;100.00;101233.38;5036954;28;20111;-76
2021/12/31 13:49:49;;;;;;;17.48;3.45;;;;;;;9.74;100.00;101222.47;5021217;28;20056;-75
2021/12/31 13:52:23;;;;;;;20.55;3.53;;;;;;;10.03;100.00;101270.34;5069536;28;20104;-75
2021/12/31 13:54:53;;;;;;;;;;;;;;;10.15;100.00;101289.66;5053781;28;20083;-78
2021/12/31 13:57:31;;;;;;;19.00;3.55;;;;;;;10.06;100.00;101277.19;5066316;28;19993;-80
2021/12/31 14:00:13;;;;;;;20.15;4.25;;;;;;;10.20;100.00;101312.13;5058909;28;20025;-76
2021/12/31 14:02:42;;;;;;;15.00;3.17;;;;;;;9.73;100.00;101241.91;5075546;28;20082;-79
2021/12/31 14:05:10;;;;;;;18.55;4.28;;;;;;;9.83;100.00;101267.47;5062747;28;20066;-79
2021/12/31 14:07:51;;;;;;;22.77;7.38;;;;;;;10.30;100.00;101314.06;5060233;28;20371;-76
2021/12/31 14:10:20;;;;;;;17.55;4.60;;;;;;;10.11;100.00;101304.91;5065904;28;20080;-79
2021/12/31 14:12:55;;;;;;;17.23;3.38;;;;;;;10.29;100.00;101331.72;5062093;28;20020;-78
2021/12/31 14:15:40;;;;;;;17.77;6.13;;;;;;;10.30;100.00;101319.34;5064636;28;20033;-79
2021/12/31 14:18:10;;;;;;;14.65;3.30;;;;;;;9.88;100.00;101246.00;5062433;28;20044;-78
2021/12/31 14:20:41;;;;;;;18.90;3.85;;;;;;;9.96;100.00;101272.63;5059090;28;20057;-75
2021/12/31 14:23:08;;;;;;;11.90;3.13;;;;;;;10.09;100.00;101292.78;5057000;28;20116;-77
2021/12/31 14:25:40;;;;;;;20.05;3.65;;;;;;;10.03;100.00;101288.81;5061853;28;20092;-78
2021/12/31 14:28:07;;;;;;;14.77;3.53;;;;;;;10.10;100.00;101307.66;5063151;28;20036;-78
2021/12/31 14:30:35;;;;;;;16.00;2.75;;;;;;;9.88;100.00;101282.06;5064649;28;20037;-79
2021/12/31 14:33:01;;;;;;;15.50;4.50;;;;;;;10.20;100.00;101320.03;5067082;28;20044;-79
2021/12/31 14:35:44;;;;;;;16.58;4.63;;;;;;;9.98;100.00;101286.53;5026269;28;20120;-77
2021/12/31 14:38:20;;;;;;;14.53;3.60;;;;;;;9.72;100.00;101275.34;5038980;28;20035;-78
2021/12/31 14:40:49;;;;;;;16.70;4.28;;;;;;;9.76;100.00;101260.94;5037260;28;20364;-76
2021/12/31 14:43:15;;;;;;;16.45;3.50;;;;;;;10.03;100.00;101318.66;5037324;28;20033;-76
2021/12/31 14:45:43;;;;;;;13.65;3.20;;;;;;;9.83;100.00;101320.22;5038308;28;20025;-78
2021/12/31 14:48:12;;;;;;;16.27;3.50;;;;;;;9.85;100.00;101312.16;5026600;28;20081;-78
2021/12/31 14:50:49;;;;;;;13.20;3.15;;;;;;;10.13;100.00;101355.78;5040999;28;20079;-79
2021/12/31 14:53:23;;;;;;;15.73;4.07;;;;;;;9.89;100.00;101329.44;5058272;28;20029;-80
2021/12/31 14:55:55;;;;;;;13.20;3.15;;;;;;;9.75;100.00;101300.63;5058458;28;20028;-80
2021/12/31 14:58:23;;;;;;;22.58;3.63;;;;;;;9.92;100.00;101347.66;5055353;28;20057;-80
2021/12/31 15:00:50;;;;;;;14.38;3.75;;;;;;;10.05;100.00;101376.63;5060827;28;20025;-79
2021/12/31 15:03:17;;;;;;;13.43;2.92;;;;;;;9.96;100.00;101358.84;5046742;28;20459;-78
2021/12/31 15:06:02;;;;;;;15.45;3.45;;;;;;;10.19;100.00;101384.31;5059944;28;20025;-80
2021/12/31 15:08:31;;;;;;;14.98;2.72;;;;;;;10.06;100.00;101386.22;5502488;23;20036;-80
2021/12/31 15:10:57;;;;;;;20.02;2.95;;;;;;;10.03;100.00;101394.34;5033252;28;20120;-79
2021/12/31 15:13:27;;;;;;;17.02;3.08;;;;;;;9.95;100.00;101383.56;5067617;28;20048;-77
2021/12/31 15:15:53;;;;;;;17.75;3.72;;;;;;;10.03;100.00;101395.19;5060950;28;20032;-78
2021/12/31 15:18:25;;;;;;;9.00;2.30;;;;;;;9.91;100.00;101404.03;5044003;28;20056;-77
2021/12/31 15:20:54;;;;;;;15.48;3.78;;;;;;;9.70;100.00;101355.53;5051286;28;20033;-78
2021/12/31 15:23:20;;;;;;;15.35;2.83;;;;;;;9.55;100.00;101334.59;5032966;28;20111;-78
2021/12/31 15:25:53;;;;;;;14.40;3.67;;;;;;;9.65;100.00;101353.25;5043225;28;20081;-78
2021/12/31 15:28:18;;;;;;;17.40;3.92;;;;;;;9.78;100.00;101401.47;5026306;28;20025;-76
2021/12/31 15:30:44;;;;;;;19.27;3.55;;;;;;;9.51;100.00;101351.59;5026884;28;20142;-77
2021/12/31 15:33:10;;;;;;;18.65;3.40;;;;;;;9.67;100.00;101405.84;5046166;28;20155;-77
2021/12/31 15:35:46;;;;;;;25.15;5.70;;;;;;;9.46;100.00;101368.72;5046308;28;20087;-79
2021/12/31 15:38:19;;;;;;;25.05;9.07;;;;;;;9.34;100.00;101334.41;5051044;28;20096;-79
2021/12/31 15:40:57;;;;;;;22.83;5.05;;;;;;;9.62;100.00;101414.94;5069175;28;20028;-79
2021/12/31 15:43:23;;;;;;;22.23;4.07;;;;;;;9.40;100.00;101391.94;5064437;28;20453;-78
2021/12/31 15:45:58;;;;;;;15.70;3.38;;;;;;;9.41;100.00;101374.34;5046448;28;20070;-78
2021/12/31 15:48:33;;;;;;;17.33;4.05;;;;;;;9.60;100.00;101421.28;5029030;28;20039;-78
2021/12/31 15:50:59;;;;;;;22.67;5.32;;;;;;;9.49;100.00;101384.31;5048583;28;20021;-76
2021/12/31 15:53:28;;;;;;;18.15;4.00;;;;;;;9.34;100.00;101387.13;5049512;28;20031;-77
2021/12/31 15:55:53;;;;;;;20.90;4.72;;;;;;;9.31;100.00;101379.44;5047733;28;20045;-77
2021/12/31 15:58:19;;;;;;;23.48;6.78;;;;;;;9.27;100.00;101377.97;5025407;28;20366;-75
2021/12/31 16:00:44;;;;;;;20.00;4.47;;;;;;;9.54;100.00;101432.28;5060000;28;20029;-76
2021/12/31 16:03:13;;;;;;;18.52;6.05;;;;;;;9.51;100.00;101435.97;5025123;28;20025;-75
2021/12/31 16:05:39;;;;;;;22.08;5.25;;;;;;;9.33;100.00;101414.44;5039081;28;20070;-75
2021/12/31 16:08:05;;;;;;;20.73;4.05;;;;;;;9.08;100.00;101380.22;5060488;28;20131;-77
2021/12/31 16:10:31;;;;;;;23.05;4.20;;;;;;;9.24;100.00;101396.63;5059727;28;20033;-74
2021/12/31 16:12:59;;;;;;;18.25;4.07;;;;;;;9.50;100.00;101444.84;5061941;28;20051;-76
2021/12/31 16:15:29;;;;;;;22.90;4.28;;;;;;;9.25;100.00;101410.66;5064306;28;20016;-76
2021/12/31 16:17:54;;;;;;;21.10;4.22;;;;;;;9.45;100.00;101451.38;5038972;28;20046;-77
2021/12/31 16:20:29;;;;;;;14.10;3.50;;;;;;;9.28;100.00;101440.25;5043294;28;20498;-76
2021/12/31 16:23:03;;;;;;;18.15;4.43;;;;;;;9.49;100.00;101463.41;5072449;28;20378;-81
2021/12/31 16:25:35;;;;;;;22.27;4.10;;;;;;;9.06;100.00;101424.28;5067781;28;20112;-77
2021/12/31 16:28:01;;;;;;;19.40;3.75;;;;;;;9.37;100.00;101475.66;5070746;28;20020;-78
2021/12/31 16:30:27;;;;;;;24.27;4.00;;;;;;;9.08;100.00;101452.19;5062702;28;20362;-79
2021/12/31 16:32:55;;;;;;;16.83;3.83;;;;;;;9.13;100.00;101457.16;5066389;28;20035;-81
2021/12/31 16:35:34;;;;;;;23.13;4.60;;;;;;;9.01;100.00;101421.97;5085268;28;20021;-79
2021/12/31 16:38:00;;;;;;;30.73;6.22;;;;;;;9.07;100.00;101442.63;5047169;28;20115;-77
2021/12/31 16:40:32;;;;;;;34.20;10.18;;;;;;;9.19;100.00;101488.34;5086478;28;20025;-80
2021/12/31 16:43:03;;;;;;;24.25;5.57;;;;;;;8.92;100.00;101436.63;5054503;28;20028;-79
2021/12/31 16:45:57;;;;;;;28.88;10.15;;;;;;;8.84;100.00;101435.50;5074181;28;20150;-81
2021/12/31 16:49:19;;;;;;;21.35;5.38;;;;;;;9.29;100.00;101505.22;5069129;23;20048;-86
2021/12/31 16:51:44;;;;;;;;;;;;;;;9.23;100.00;101510.06;5051674;28;20035;-82
2021/12/31 16:54:12;;;;;;;22.52;6.63;;;;;;;8.99;100.00;101480.06;5077351;23;19960;-80
2021/12/31 16:56:40;;;;;;;24.30;6.88;;;;;;;8.99;100.00;101473.91;5042264;28;20049;-81
2021/12/31 16:59:10;;;;;;;21.65;5.47;;;;;;;9.22;100.00;101525.03;5100510;23;20060;-82
2021/12/31 17:01:39;;;;;;;28.60;6.20;;;;;;;9.19;100.00;101535.78;5040756;28;20045;-78
2021/12/31 17:04:13;;;;;;;21.50;4.90;;;;;;;9.06;100.00;101501.56;5053770;28;20029;-76
2021/12/31 17:06:41;;;;;;;23.83;5.00;;;;;;;9.01;100.00;101494.91;5058440;28;20040;-84
2021/12/31 17:14:27;;;;;;;22.38;5.13;;;;;;;8.84;100.00;101480.28;5250067;22;20054;-82
2021/12/31 17:17:00;;;;;;;26.60;5.57;;;;;;;9.10;100.00;101523.25;5114802;23;20045;-81
2021/12/31 17:19:27;;;;;;;26.75;5.10;;;;;;;8.88;100.00;101503.66;5056676;28;20545;-81
2021/12/31 17:22:01;;;;;;;26.48;4.80;;;;;;;9.12;100.00;101559.06;5042218;28;20037;-81
2021/12/31 17:24:30;;;;;;;30.27;6.85;;;;;;;8.73;100.00;101508.16;5058594;28;20478;-81
2021/12/31 17:26:59;;;;;;;23.77;4.97;;;;;;;8.78;100.00;101526.28;5037495;28;20021;-82
2021/12/31 17:30:07;;;;;;;30.50;5.00;;;;;;;9.05;100.00;101560.44;5018013;28;20028;-81
2021/12/31 17:32:40;;;;;;;26.83;5.32;;;;;;;9.00;100.00;101567.81;5147475;22;20048;-83
2021/12/31 17:38:02;;;;;;;28.58;6.38;;;;;;;8.84;100.00;101549.59;5137180;23;20094;-82
2021/12/31 17:40:47;;;;;;;40.45;12.02;;;;;;;9.01;100.00;101576.56;5086933;28;20028;-83
2021/12/31 17:43:48;;;;;;;;;;;;;;;;;;;;;
2021/12/31 17:46:37;;;;;;;34.08;7.25;;;;;;;8.50;100.00;101525.53;5032575;28;20033;-77
2021/12/31 17:49:06;;;;;;;31.63;7.75;;;;;;;8.85;100.00;101582.03;5015942;28;20080;-77
2021/12/31 17:51:32;;;;;;;27.98;8.27;;;;;;;8.42;100.00;101532.22;4999527;28;20060;-76
2021/12/31 17:54:08;;;;;;;29.70;7.25;;;;;;;8.64;100.00;101611.47;5034606;28;20033;-81
2021/12/31 17:59:15;;;;;;;27.00;7.55;;;;;;;8.19;100.00;101576.66;5109049;23;20055;-77
2021/12/31 18:01:45;;;;;;;24.13;7.30;;;;;;;8.25;100.00;101589.41;5085367;28;20036;-80
2021/12/31 18:04:11;;;;;;;34.92;12.25;;;;;;;8.30;100.00;101610.16;5065762;28;20087;-78
2021/12/31 18:06:43;;;;;;;23.58;7.90;;;;;;;8.44;100.00;101633.84;5056810;28;20047;-80
2021/12/31 18:09:09;;;;;;;22.75;8.65;;;;;;;8.46;100.00;101647.75;5086775;28;20029;-80
2021/12/31 18:11:35;;;;;;;24.58;8.02;;;;;;;8.10;100.00;101596.50;5044196;28;20436;-78
2021/12/31 18:14:08;;;;;;;25.83;10.98;;;;;;;8.35;100.00;101637.03;5080460;28;20047;-78
2021/12/31 18:16:37;;;;;;;29.58;11.35;;;;;;;8.12;100.00;101607.75;5045274;28;20048;-79
2021/12/31 18:19:12;;;;;;;28.42;11.95;;;;;;;8.30;100.00;101639.13;5047836;28;20471;-82
2021/12/31 18:21:51;;;;;;;24.23;8.63;;;;;;;8.31;100.00;101649.56;5066049;28;20092;-82
2021/12/31 18:24:17;;;;;;;21.67;9.23;;;;;;;8.51;100.00;101681.66;5054941;28;20348;-76
2021/12/31 18:26:43;;;;;;;28.67;9.38;;;;;;;8.10;100.00;101612.28;5061743;28;20035;-77
2021/12/31 18:29:09;;;;;;;24.98;10.27;;;;;;;8.54;100.00;101681.50;5045336;28;20040;-78
2021/12/31 18:31:36;;;;;;;28.17;9.75;;;;;;;8.53;100.00;101675.34;5061594;28;20043;-77
2021/12/31 18:34:03;;;;;;;27.67;9.80;;;;;;;8.35;100.00;101621.22;5049377;28;20020;-80
2021/12/31 18:36:30;;;;;;;29.73;13.63;;;;;;;8.44;100.00;101647.00;5066792;28;20074;-80
2021/12/31 18:39:24;;;;;;;25.77;10.32;;;;;;;8.61;100.00;101656.44;5067062;28;20075;-79
2021/12/31 18:41:50;;;;;;;27.55;9.55;;;;;;;8.66;100.00;101658.78;5070622;28;20032;-81
2021/12/31 18:44:17;;;;;;;25.38;9.23;;;;;;;8.55;100.00;101641.88;5073580;28;20064;-80
2021/12/31 18:49:27;;;;;;;27.15;11.40;;;;;;;8.58;100.00;101664.53;5065473;28;20028;-78
2021/12/31 18:52:05;;;;;;;;;;;;;;;;;;;;;
2021/12/31 18:54:31;;;;;;;26.80;9.90;;;;;;;8.39;100.00;101653.47;5067606;28;20032;-81